Time;durP1;ratioP1;P1;durP2;ratioP2;P2;SDS_P1;SDS_P2;PMS_P1;PMS_P2;Temp;Humidity;BMP_temperature;BMP_pressure;BME280_temperature;BME280_humidity;BME280_pressure;Samples;Min_cycle;Max_cycle;Signal;HPM_P1;HPM_P2
2023/05/20 00:00:21;;;;;;;;;2.50;2.00;;;;;;;;5012310;28;8802;-65
2023/05/20 00:02:47;;;;;;;;;2.50;2.50;;;;;;;;5012389;28;8799;-65
2023/05/20 00:05:12;;;;;;;;;2.00;2.00;;;;;;;;5012355;28;8896;-65
2023/05/20 00:07:38;;;;;;;;;3.00;2.00;;;;;;;;5012351;28;9050;-67
2023/05/20 00:10:03;;;;;;;;;2.25;1.50;;;;;;;;5012054;28;8914;-67
2023/05/20 00:12:28;;;;;;;;;1.50;1.50;;;;;;;;5012028;28;8814;-67
2023/05/20 00:14:54;;;;;;;;;2.75;2.00;;;;;;;;5011870;28;8798;-67
2023/05/20 00:17:19;;;;;;;;;5.00;3.00;;;;;;;;5010505;28;8899;-67
2023/05/20 00:19:45;;;;;;;;;2.00;2.00;;;;;;;;5011800;28;8802;-67
2023/05/20 00:22:10;;;;;;;;;3.75;2.75;;;;;;;;5011896;28;8909;-67
2023/05/20 00:24:35;;;;;;;;;5.25;4.50;;;;;;;;5011928;28;8786;-66
2023/05/20 00:27:01;;;;;;;;;3.50;2.50;;;;;;;;5011848;28;8799;-64
2023/05/20 00:29:27;;;;;;;;;2.00;2.00;;;;;;;;5011626;28;8806;-65
2023/05/20 00:31:52;;;;;;;;;2.50;2.00;;;;;;;;5011714;28;8809;-65
2023/05/20 00:34:19;;;;;;;;;2.50;2.50;;;;;;;;5011624;28;12213;-64
2023/05/20 00:36:44;;;;;;;;;3.00;2.50;;;;;;;;5011785;28;8798;-65
2023/05/20 00:39:10;;;;;;;;;2.00;2.00;;;;;;;;5010021;28;11228;-64
2023/05/20 00:41:35;;;;;;;;;4.50;3.50;;;;;;;;5011485;28;9565;-64
2023/05/20 00:44:00;;;;;;;;;6.50;2.50;;;;;;;;5011458;28;8925;-65
2023/05/20 00:46:27;;;;;;;;;2.25;1.50;;;;;;;;5011428;28;8801;-65
2023/05/20 00:48:53;;;;;;;;;2.00;1.50;;;;;;;;5011537;28;8802;-65
2023/05/20 00:51:18;;;;;;;;;2.25;2.00;;;;;;;;5011400;28;10962;-67
2023/05/20 00:53:44;;;;;;;;;2.00;2.00;;;;;;;;5011442;28;8833;-67
2023/05/20 00:56:10;;;;;;;;;3.00;3.00;;;;;;;;5011411;28;8814;-67
2023/05/20 00:58:36;;;;;;;;;5.75;3.00;;;;;;;;5011131;28;8949;-67
2023/05/20 01:01:02;;;;;;;;;6.75;3.00;;;;;;;;5011144;28;11077;-67
2023/05/20 01:03:28;;;;;;;;;3.00;3.00;;;;;;;;5011155;28;10922;-67
2023/05/20 01:05:53;;;;;;;;;5.00;2.25;;;;;;;;5011266;28;8809;-67
2023/05/20 01:08:19;;;;;;;;;2.00;1.25;;;;;;;;5011048;28;8925;-66
2023/05/20 01:10:46;;;;;;;;;4.50;3.00;;;;;;;;5009663;28;9400;-66
2023/05/20 01:13:14;;;;;;;;;3.00;3.00;;;;;;;;5011014;28;8791;-66
2023/05/20 01:15:41;;;;;;;;;2.00;2.00;;;;;;;;5011009;28;10990;-67
2023/05/20 01:18:07;;;;;;;;;1.75;1.75;;;;;;;;5010879;28;10974;-66
2023/05/20 01:20:34;;;;;;;;;2.00;2.00;;;;;;;;5010806;28;10758;-66
2023/05/20 01:23:00;;;;;;;;;5.50;2.75;;;;;;;;5010840;28;11034;-65
2023/05/20 01:25:25;;;;;;;;;2.00;2.00;;;;;;;;5010741;28;10848;-66
2023/05/20 01:27:51;;;;;;;;;5.00;5.00;;;;;;;;5010689;28;8802;-66
2023/05/20 01:30:17;;;;;;;;;2.00;2.00;;;;;;;;5010724;28;8863;-66
2023/05/20 01:32:46;;;;;;;;;2.00;2.00;;;;;;;;5010659;28;8860;-66
2023/05/20 01:35:12;;;;;;;;;4.00;1.75;;;;;;;;5010725;28;9532;-66
2023/05/20 01:37:39;;;;;;;;;1.75;1.00;;;;;;;;5010466;28;10903;-66
2023/05/20 01:40:07;;;;;;;;;2.75;2.75;;;;;;;;5010495;28;11859;-66
2023/05/20 01:42:34;;;;;;;;;4.50;3.00;;;;;;;;5008184;28;11025;-66
2023/05/20 01:44:59;;;;;;;;;2.00;2.00;;;;;;;;5010525;28;11433;-66
2023/05/20 01:47:24;;;;;;;;;3.00;3.00;;;;;;;;5010284;28;11136;-66
2023/05/20 01:49:52;;;;;;;;;2.25;2.00;;;;;;;;5010312;28;9537;-66
2023/05/20 01:52:18;;;;;;;;;1.75;1.50;;;;;;;;5010523;28;8996;-66
2023/05/20 01:54:49;;;;;;;;;2.25;2.00;;;;;;;;5010289;28;10872;-66
2023/05/20 01:57:15;;;;;;;;;2.25;2.25;;;;;;;;5009953;28;8834;-66
2023/05/20 01:59:40;;;;;;;;;3.00;2.50;;;;;;;;5010325;28;11204;-66
2023/05/20 02:02:05;;;;;;;;;2.75;2.75;;;;;;;;5010251;28;8888;-67
2023/05/20 02:04:30;;;;;;;;;1.50;1.50;;;;;;;;5009926;28;9981;-66
2023/05/20 02:06:56;;;;;;;;;6.00;3.00;;;;;;;;5010078;28;8794;-66
2023/05/20 02:09:21;;;;;;;;;2.75;2.75;;;;;;;;5010122;28;8848;-66
2023/05/20 02:11:47;;;;;;;;;2.50;2.00;;;;;;;;5009944;28;8803;-66
2023/05/20 02:14:12;;;;;;;;;6.25;3.00;;;;;;;;5010016;28;8895;-66
2023/05/20 02:16:37;;;;;;;;;6.50;5.50;;;;;;;;5009804;28;8799;-66
2023/05/20 02:19:03;;;;;;;;;3.50;3.00;;;;;;;;5009832;28;8815;-67
2023/05/20 02:21:28;;;;;;;;;5.75;3.50;;;;;;;;5009818;28;8858;-67
2023/05/20 02:23:53;;;;;;;;;3.50;3.00;;;;;;;;5009825;28;8802;-67
2023/05/20 02:26:19;;;;;;;;;6.00;3.50;;;;;;;;5009836;28;9529;-67
2023/05/20 02:28:45;;;;;;;;;3.00;2.50;;;;;;;;5009746;28;8820;-67
2023/05/20 02:31:11;;;;;;;;;3.00;3.00;;;;;;;;5009719;28;11479;-67
2023/05/20 02:33:37;;;;;;;;;6.00;5.00;;;;;;;;5009747;28;11512;-67
2023/05/20 02:36:02;;;;;;;;;3.00;3.00;;;;;;;;5009656;28;12122;-67
2023/05/20 02:38:28;;;;;;;;;3.00;3.00;;;;;;;;5008194;28;8838;-67
2023/05/20 02:40:54;;;;;;;;;3.00;2.00;;;;;;;;5008075;28;8825;-67
2023/05/20 02:43:20;;;;;;;;;2.50;2.50;;;;;;;;5009782;28;8787;-67
2023/05/20 02:45:45;;;;;;;;;6.50;5.00;;;;;;;;5008231;28;12247;-67
2023/05/20 02:48:11;;;;;;;;;5.75;4.00;;;;;;;;5009439;28;8987;-67
2023/05/20 02:50:39;;;;;;;;;5.00;5.00;;;;;;;;5009385;28;8791;-66
2023/05/20 02:53:04;;;;;;;;;2.00;2.00;;;;;;;;5009277;28;8798;-66
2023/05/20 02:55:32;;;;;;;;;5.50;3.50;;;;;;;;5009221;28;11430;-67
2023/05/20 02:57:58;;;;;;;;;3.50;3.50;;;;;;;;5007746;28;8870;-67
2023/05/20 03:00:23;;;;;;;;;5.00;3.00;;;;;;;;5009347;28;11529;-67
2023/05/20 03:02:48;;;;;;;;;3.00;3.00;;;;;;;;5009287;28;8848;-66
2023/05/20 03:05:14;;;;;;;;;3.00;2.00;;;;;;;;5009362;28;8814;-67
2023/05/20 03:07:39;;;;;;;;;2.00;2.00;;;;;;;;5009424;28;8856;-67
2023/05/20 03:10:05;;;;;;;;;2.50;2.50;;;;;;;;5009150;28;8791;-66
2023/05/20 03:12:30;;;;;;;;;5.00;2.50;;;;;;;;5009279;28;8810;-66
2023/05/20 03:14:57;;;;;;;;;3.00;2.00;;;;;;;;5009158;28;11538;-66
2023/05/20 03:17:23;;;;;;;;;4.50;3.00;;;;;;;;5007820;28;8817;-67
2023/05/20 03:19:48;;;;;;;;;3.00;2.25;;;;;;;;5009033;28;11841;-66
2023/05/20 03:22:13;;;;;;;;;3.00;2.00;;;;;;;;5009345;28;8802;-66
2023/05/20 03:24:39;;;;;;;;;2.00;2.00;;;;;;;;5009077;28;8903;-67
2023/05/20 03:27:05;;;;;;;;;2.25;1.25;;;;;;;;5009139;28;8932;-66
2023/05/20 03:29:32;;;;;;;;;4.00;2.50;;;;;;;;5007624;28;11464;-66
2023/05/20 03:31:57;;;;;;;;;1.00;1.00;;;;;;;;5009164;28;11500;-67
2023/05/20 03:34:22;;;;;;;;;2.00;2.00;;;;;;;;5008994;28;11170;-67
2023/05/20 03:36:49;;;;;;;;;1.50;1.00;;;;;;;;5009008;28;8975;-67
2023/05/20 03:39:15;;;;;;;;;2.50;1.50;;;;;;;;5008969;28;8882;-67
2023/05/20 03:41:40;;;;;;;;;2.00;2.00;;;;;;;;5009051;28;11209;-66
2023/05/20 03:44:05;;;;;;;;;1.75;1.00;;;;;;;;5009126;28;8915;-66
2023/05/20 03:46:32;;;;;;;;;2.50;1.00;;;;;;;;5009098;28;8795;-67
2023/05/20 03:48:58;;;;;;;;;0.75;0.75;;;;;;;;5008909;28;8903;-66
2023/05/20 03:51:23;;;;;;;;;1.00;1.00;;;;;;;;5008819;28;11021;-67
2023/05/20 03:53:48;;;;;;;;;1.00;1.00;;;;;;;;5008648;28;8826;-66
2023/05/20 03:56:14;;;;;;;;;2.00;2.00;;;;;;;;5008800;28;8860;-66
2023/05/20 03:58:39;;;;;;;;;0.50;0.50;;;;;;;;5008507;28;9643;-66
2023/05/20 04:01:05;;;;;;;;;2.00;1.00;;;;;;;;5008886;28;8833;-65
2023/05/20 04:03:30;;;;;;;;;1.00;1.00;;;;;;;;5008705;28;9533;-65
2023/05/20 04:05:55;;;;;;;;;2.25;1.00;;;;;;;;5010748;28;8795;-66
2023/05/20 04:08:24;;;;;;;;;1.00;1.00;;;;;;;;5012221;28;8819;-66
2023/05/20 04:10:49;;;;;;;;;0.75;0.75;;;;;;;;5012407;28;9538;-66
2023/05/20 04:13:15;;;;;;;;;0.00;0.00;;;;;;;;5012048;28;10798;-66
2023/05/20 04:15:40;;;;;;;;;1.00;1.00;;;;;;;;5010773;28;9507;-66
2023/05/20 04:18:06;;;;;;;;;2.25;1.00;;;;;;;;5011742;28;8877;-67
2023/05/20 04:20:31;;;;;;;;;0.00;0.00;;;;;;;;5011588;28;8852;-66
2023/05/20 04:22:57;;;;;;;;;1.00;0.50;;;;;;;;5012072;28;8786;-66
2023/05/20 04:25:22;;;;;;;;;0.00;0.00;;;;;;;;5012082;28;8782;-66
2023/05/20 04:27:48;;;;;;;;;0.50;0.50;;;;;;;;5012191;28;8981;-66
2023/05/20 04:30:15;;;;;;;;;0.25;0.25;;;;;;;;5011947;28;9545;-67
2023/05/20 04:32:41;;;;;;;;;0.00;0.00;;;;;;;;5011829;28;8790;-66
2023/05/20 04:35:10;;;;;;;;;0.00;0.00;;;;;;;;5011872;28;10745;-66
2023/05/20 04:37:36;;;;;;;;;1.50;1.00;;;;;;;;5011621;28;8826;-66
2023/05/20 04:40:02;;;;;;;;;1.00;1.00;;;;;;;;5011565;28;10957;-67
2023/05/20 04:42:28;;;;;;;;;2.00;1.00;;;;;;;;5011561;28;8916;-67
2023/05/20 04:44:54;;;;;;;;;3.00;3.00;;;;;;;;5011591;28;8774;-65
2023/05/20 04:47:19;;;;;;;;;1.75;1.75;;;;;;;;5011366;28;10874;-65
2023/05/20 04:49:44;;;;;;;;;1.00;1.00;;;;;;;;5010056;28;8823;-66
2023/05/20 04:52:10;;;;;;;;;1.00;1.00;;;;;;;;5010020;28;8940;-66
2023/05/20 04:54:35;;;;;;;;;2.00;1.50;;;;;;;;5009971;28;8826;-66
2023/05/20 04:57:01;;;;;;;;;1.00;1.00;;;;;;;;5011094;28;8783;-66
2023/05/20 04:59:26;;;;;;;;;1.00;1.00;;;;;;;;5011383;28;9577;-66
2023/05/20 05:01:52;;;;;;;;;2.00;2.00;;;;;;;;5011258;28;10707;-66
2023/05/20 05:04:17;;;;;;;;;2.00;1.00;;;;;;;;5011232;28;8791;-66
2023/05/20 05:06:42;;;;;;;;;1.25;1.25;;;;;;;;5011069;28;8821;-65
2023/05/20 05:09:08;;;;;;;;;0.00;0.00;;;;;;;;5011107;28;8818;-66
2023/05/20 05:11:33;;;;;;;;;3.00;3.00;;;;;;;;5011366;28;8899;-66
2023/05/20 05:13:59;;;;;;;;;3.00;2.25;;;;;;;;5011051;28;8862;-65
2023/05/20 05:16:24;;;;;;;;;9.50;8.75;;;;;;;;5011058;28;8825;-66
2023/05/20 05:18:49;;;;;;;;;1.00;1.00;;;;;;;;5010887;28;8917;-65
2023/05/20 05:21:15;;;;;;;;;1.25;1.25;;;;;;;;5010925;28;8872;-66
2023/05/20 05:23:41;;;;;;;;;3.50;3.00;;;;;;;;5010834;28;8803;-65
2023/05/20 05:26:06;;;;;;;;;1.50;1.50;;;;;;;;5011084;28;9514;-66
2023/05/20 05:28:32;;;;;;;;;3.00;1.00;;;;;;;;5010659;28;10939;-66
2023/05/20 05:30:57;;;;;;;;;3.00;2.00;;;;;;;;5010756;28;8806;-66
2023/05/20 05:33:22;;;;;;;;;1.75;1.50;;;;;;;;5010566;28;8871;-66
2023/05/20 05:35:48;;;;;;;;;3.00;2.00;;;;;;;;5010576;28;8813;-65
2023/05/20 05:38:14;;;;;;;;;3.00;2.00;;;;;;;;5010575;28;8838;-66
2023/05/20 05:40:40;;;;;;;;;2.00;2.00;;;;;;;;5010690;28;10814;-67
2023/05/20 05:43:06;;;;;;;;;2.00;2.00;;;;;;;;5010685;28;8807;-66
2023/05/20 05:45:31;;;;;;;;;2.75;1.50;;;;;;;;5010608;28;10895;-66
2023/05/20 05:47:56;;;;;;;;;1.00;1.00;;;;;;;;5010415;28;9111;-66
2023/05/20 05:50:21;;;;;;;;;1.75;1.75;;;;;;;;5008306;28;8834;-65
2023/05/20 05:52:47;;;;;;;;;1.00;1.00;;;;;;;;5009957;28;8921;-65
2023/05/20 05:55:12;;;;;;;;;2.00;2.00;;;;;;;;5008718;28;8847;-66
2023/05/20 05:57:38;;;;;;;;;1.25;1.25;;;;;;;;5009189;28;8831;-66
2023/05/20 06:00:04;;;;;;;;;3.00;3.00;;;;;;;;5009527;28;8799;-66
2023/05/20 06:02:29;;;;;;;;;2.00;2.00;;;;;;;;5009294;28;11062;-66
2023/05/20 06:04:55;;;;;;;;;2.25;2.25;;;;;;;;5008680;28;8900;-65
2023/05/20 06:07:20;;;;;;;;;2.00;2.00;;;;;;;;5009272;28;9490;-66
2023/05/20 06:09:45;;;;;;;;;1.00;1.00;;;;;;;;5008754;28;8820;-65
2023/05/20 06:12:11;;;;;;;;;2.00;2.00;;;;;;;;5008972;28;8827;-66
2023/05/20 06:14:36;;;;;;;;;1.25;1.25;;;;;;;;5008632;28;8802;-65
2023/05/20 06:17:04;;;;;;;;;4.00;3.00;;;;;;;;5008807;28;8810;-66
2023/05/20 06:19:29;;;;;;;;;2.25;2.25;;;;;;;;5008731;28;8912;-66
2023/05/20 06:21:56;;;;;;;;;2.00;2.00;;;;;;;;5008621;28;10809;-65
2023/05/20 06:24:21;;;;;;;;;5.00;4.00;;;;;;;;5008891;28;8851;-66
2023/05/20 06:26:48;;;;;;;;;3.75;2.00;;;;;;;;5009131;28;11782;-65
2023/05/20 06:29:13;;;;;;;;;3.75;2.00;;;;;;;;5009227;28;8802;-65
2023/05/20 06:31:39;;;;;;;;;2.25;1.00;;;;;;;;5009576;28;10821;-66
2023/05/20 06:34:04;;;;;;;;;2.50;2.50;;;;;;;;5009447;28;9592;-66
2023/05/20 06:36:29;;;;;;;;;0.00;0.00;;;;;;;;5009639;28;8795;-65
2023/05/20 06:38:55;;;;;;;;;2.50;2.50;;;;;;;;5009303;28;8854;-69
2023/05/20 06:41:21;;;;;;;;;2.00;2.00;;;;;;;;5008137;28;8838;-67
2023/05/20 06:43:46;;;;;;;;;3.25;3.00;;;;;;;;5009427;28;8815;-66
2023/05/20 06:46:12;;;;;;;;;2.50;2.00;;;;;;;;5009412;28;10953;-66
2023/05/20 06:48:37;;;;;;;;;1.25;1.25;;;;;;;;5009321;28;8888;-67
2023/05/20 06:51:03;;;;;;;;;3.00;1.25;;;;;;;;4998817;28;8859;-65
2023/05/20 06:53:28;;;;;;;;;2.25;2.25;;;;;;;;4997745;28;8825;-66
2023/05/20 06:55:56;;;;;;;;;19.50;17.75;;;;;;;;5002842;28;8900;-65
2023/05/20 06:58:22;;;;;;;;;29.00;24.50;;;;;;;;5007555;28;9008;-67
2023/05/20 07:00:47;;;;;;;;;6.50;4.00;;;;;;;;5009263;28;11595;-67
2023/05/20 07:03:12;;;;;;;;;4.50;4.50;;;;;;;;5009243;28;8880;-67
2023/05/20 07:05:37;;;;;;;;;3.50;3.25;;;;;;;;5008719;28;8837;-67
2023/05/20 07:08:03;;;;;;;;;5.50;3.25;;;;;;;;5009197;28;8802;-67
2023/05/20 07:10:28;;;;;;;;;4.50;3.25;;;;;;;;5009297;28;8802;-67
2023/05/20 07:12:54;;;;;;;;;4.00;4.00;;;;;;;;5008695;28;8912;-68
2023/05/20 07:15:19;;;;;;;;;2.00;2.00;;;;;;;;5005607;28;9577;-68
2023/05/20 07:17:44;;;;;;;;;4.00;2.00;;;;;;;;5008762;28;8830;-67
2023/05/20 07:20:10;;;;;;;;;3.00;3.00;;;;;;;;5006080;28;9719;-68
2023/05/20 07:22:35;;;;;;;;;4.00;3.25;;;;;;;;5014861;28;8836;-74
2023/05/20 07:25:00;;;;;;;;;5.25;3.00;;;;;;;;5028579;28;9519;-79
2023/05/20 07:27:26;;;;;;;;;2.75;2.25;;;;;;;;5016514;28;8834;-74
2023/05/20 07:29:51;;;;;;;;;3.50;3.50;;;;;;;;5009187;28;8763;-71
2023/05/20 07:32:16;;;;;;;;;2.00;2.00;;;;;;;;5008966;28;8893;-79
2023/05/20 07:34:41;;;;;;;;;14.00;12.50;;;;;;;;4996092;28;8882;-70
2023/05/20 07:37:08;;;;;;;;;12.25;10.50;;;;;;;;4990724;28;8789;-74
2023/05/20 07:39:34;;;;;;;;;7.00;6.75;;;;;;;;5008924;28;8956;-70
2023/05/20 07:41:59;;;;;;;;;13.50;13.50;;;;;;;;5012455;28;11533;-74
2023/05/20 07:44:25;;;;;;;;;2.00;1.75;;;;;;;;5012811;28;8790;-67
2023/05/20 07:46:50;;;;;;;;;5.75;5.00;;;;;;;;5012846;28;8807;-67
2023/05/20 07:49:15;;;;;;;;;4.00;4.00;;;;;;;;5012548;28;9550;-65
2023/05/20 07:51:41;;;;;;;;;3.75;3.00;;;;;;;;5012146;28;8827;-67
2023/05/20 07:54:06;;;;;;;;;3.75;3.50;;;;;;;;5012076;28;8814;-65
2023/05/20 07:56:32;;;;;;;;;4.00;3.00;;;;;;;;5010254;28;8841;-69
2023/05/20 07:58:58;;;;;;;;;3.00;3.00;;;;;;;;5008348;28;9040;-74
2023/05/20 16:55:56;;;;;;;;;5.50;5.50;;;;;;;;5104204;27;13439;-76
2023/05/20 16:58:21;;;;;;;;;7.25;6.25;;;;;;;;5107274;28;12082;-78
2023/05/20 17:00:46;;;;;;;;;7.00;6.00;;;;;;;;5104783;28;8931;-82
2023/05/20 17:03:13;;;;;;;;;7.50;7.00;;;;;;;;5105080;28;8796;-77
2023/05/20 17:05:38;;;;;;;;;7.00;6.00;;;;;;;;5098568;28;8807;-69
2023/05/20 17:08:03;;;;;;;;;6.00;6.00;;;;;;;;5086524;28;11027;-75
2023/05/20 17:10:29;;;;;;;;;7.75;5.50;;;;;;;;5102781;28;8818;-77
2023/05/20 17:12:54;;;;;;;;;7.50;7.50;;;;;;;;5106977;28;8885;-74
2023/05/20 17:15:21;;;;;;;;;6.00;6.00;;;;;;;;5107033;28;8813;-78
2023/05/20 17:17:47;;;;;;;;;7.75;3.50;;;;;;;;5105556;28;9200;-75
2023/05/20 17:20:12;;;;;;;;;5.50;5.00;;;;;;;;5107125;27;10570;-82
2023/05/20 17:22:38;;;;;;;;;8.00;6.00;;;;;;;;5125652;27;8977;-78
2023/05/20 17:25:04;;;;;;;;;7.75;6.00;;;;;;;;5127088;27;9496;-76
2023/05/20 17:27:29;;;;;;;;;6.00;4.00;;;;;;;;5126830;27;8889;-78
2023/05/20 17:29:55;;;;;;;;;9.00;4.00;;;;;;;;5123601;27;8811;-74
2023/05/20 17:32:20;;;;;;;;;7.00;6.50;;;;;;;;5127094;27;8785;-77
2023/05/20 17:34:45;;;;;;;;;6.00;4.00;;;;;;;;5127468;27;9578;-79
2023/05/20 17:37:10;;;;;;;;;5.50;4.00;;;;;;;;5127260;27;8820;-81
2023/05/20 17:39:36;;;;;;;;;10.75;4.00;;;;;;;;5125665;27;8961;-79
2023/05/20 17:42:01;;;;;;;;;3.00;3.00;;;;;;;;5127002;27;8785;-78
2023/05/20 17:44:26;;;;;;;;;4.75;3.00;;;;;;;;5126788;27;8809;-76
2023/05/20 17:46:52;;;;;;;;;6.25;3.00;;;;;;;;5126760;27;8936;-77
2023/05/20 17:49:17;;;;;;;;;2.75;2.00;;;;;;;;5120285;27;8831;-77
2023/05/20 17:51:42;;;;;;;;;3.25;3.00;;;;;;;;5121504;27;8803;-76
2023/05/20 17:54:08;;;;;;;;;6.00;4.00;;;;;;;;5126575;27;8839;-76
2023/05/20 17:56:33;;;;;;;;;6.00;5.00;;;;;;;;5126624;27;8827;-77
2023/05/20 17:58:58;;;;;;;;;6.75;4.00;;;;;;;;5123192;27;8828;-76
2023/05/20 18:01:23;;;;;;;;;6.75;4.00;;;;;;;;5126699;27;8770;-77
2023/05/20 18:03:49;;;;;;;;;6.00;6.00;;;;;;;;5126533;27;8805;-80
2023/05/20 18:06:15;;;;;;;;;7.00;6.00;;;;;;;;5118956;27;8786;-81
2023/05/20 18:08:41;;;;;;;;;5.50;4.00;;;;;;;;5109989;28;8868;-82
2023/05/20 18:11:06;;;;;;;;;6.50;5.25;;;;;;;;5094670;28;8788;-80
2023/05/20 18:13:31;;;;;;;;;9.50;6.00;;;;;;;;5091952;28;10554;-70
2023/05/20 18:15:57;;;;;;;;;7.00;6.00;;;;;;;;5092354;28;8808;-80
2023/05/20 18:18:22;;;;;;;;;3.25;3.25;;;;;;;;5091030;28;8792;-83
2023/05/20 18:20:47;;;;;;;;;7.00;4.50;;;;;;;;5101412;28;9635;-81
2023/05/20 18:23:12;;;;;;;;;8.00;4.50;;;;;;;;5112503;28;8821;-76
2023/05/20 18:25:38;;;;;;;;;6.25;4.00;;;;;;;;5112409;28;8997;-74
2023/05/20 18:28:03;;;;;;;;;4.00;4.00;;;;;;;;5112236;28;8808;-77
2023/05/20 18:30:28;;;;;;;;;9.00;7.00;;;;;;;;5093726;28;8796;-82
2023/05/20 18:32:55;;;;;;;;;9.00;5.50;;;;;;;;5090571;28;8881;-76
2023/05/20 18:35:21;;;;;;;;;6.75;4.50;;;;;;;;5091949;28;8795;-75
2023/05/20 18:37:46;;;;;;;;;6.25;6.25;;;;;;;;5091533;28;10436;-71
2023/05/20 18:40:12;;;;;;;;;6.00;6.00;;;;;;;;5089985;28;8800;-90
2023/05/20 18:42:37;;;;;;;;;9.00;6.00;;;;;;;;5091731;28;8784;-81
2023/05/20 18:45:02;;;;;;;;;7.75;6.75;;;;;;;;5091763;28;8808;-78
2023/05/20 18:47:28;;;;;;;;;6.75;6.00;;;;;;;;5091571;28;8812;-78
2023/05/20 18:49:54;;;;;;;;;6.25;4.00;;;;;;;;5089975;28;9584;-81
2023/05/20 18:52:19;;;;;;;;;13.50;12.50;;;;;;;;5112064;28;9531;-80
2023/05/20 18:54:45;;;;;;;;;21.75;18.25;;;;;;;;5111866;28;10838;-76
2023/05/20 18:57:10;;;;;;;;;4.50;4.50;;;;;;;;5112071;28;8839;-77
2023/05/20 18:59:35;;;;;;;;;7.00;5.50;;;;;;;;5099491;27;8822;-79
2023/05/20 19:02:00;;;;;;;;;7.00;6.00;;;;;;;;5090332;28;8860;-76
2023/05/20 19:04:26;;;;;;;;;3.50;3.50;;;;;;;;5094179;28;8846;-77
2023/05/20 19:06:54;;;;;;;;;6.00;4.00;;;;;;;;5089905;28;8800;-78
2023/05/20 19:09:19;;;;;;;;;7.25;6.00;;;;;;;;5089832;28;8819;-83
2023/05/20 19:11:45;;;;;;;;;5.00;5.00;;;;;;;;5089820;28;10408;-81
2023/05/20 19:14:10;;;;;;;;;10.50;6.00;;;;;;;;5090037;28;8820;-83
2023/05/20 19:16:36;;;;;;;;;7.25;6.00;;;;;;;;5090066;28;8792;-82
2023/05/20 19:19:01;;;;;;;;;5.50;5.00;;;;;;;;5088021;28;8792;-81
2023/05/20 19:21:28;;;;;;;;;5.25;4.00;;;;;;;;5103733;28;11347;-79
2023/05/20 19:23:53;;;;;;;;;10.25;6.25;;;;;;;;5110018;28;8871;-75
2023/05/20 19:26:18;;;;;;;;;7.50;7.00;;;;;;;;5111279;28;10433;-80
2023/05/20 19:28:44;;;;;;;;;7.00;6.00;;;;;;;;5107353;28;9004;-83
2023/05/20 19:31:09;;;;;;;;;7.25;6.25;;;;;;;;5104870;28;8793;-83
2023/05/20 19:33:34;;;;;;;;;6.50;3.50;;;;;;;;5110145;28;8789;-82
2023/05/20 19:35:59;;;;;;;;;6.00;3.00;;;;;;;;5110043;28;8915;-77
2023/05/20 19:38:25;;;;;;;;;7.25;6.00;;;;;;;;5109892;28;8866;-79
2023/05/20 19:40:50;;;;;;;;;4.00;4.00;;;;;;;;5096891;28;8796;-75
2023/05/20 19:43:15;;;;;;;;;7.25;4.00;;;;;;;;5088309;28;8804;-75
2023/05/20 19:45:41;;;;;;;;;12.00;7.50;;;;;;;;5088781;28;8808;-79
2023/05/20 19:48:06;;;;;;;;;3.75;3.75;;;;;;;;5090739;28;9524;-78
2023/05/20 19:50:31;;;;;;;;;5.50;4.50;;;;;;;;5104841;28;8804;-70
2023/05/20 19:52:57;;;;;;;;;5.00;5.00;;;;;;;;5110749;28;8805;-70
2023/05/20 19:55:22;;;;;;;;;3.00;3.00;;;;;;;;5092858;28;8962;-73
2023/05/20 19:57:52;;;;;;;;;11.00;5.50;;;;;;;;5090088;28;8812;-72
2023/05/20 20:00:17;;;;;;;;;7.00;3.75;;;;;;;;5088570;28;8847;-75
2023/05/20 20:02:42;;;;;;;;;6.00;4.00;;;;;;;;5090061;28;10566;-78
2023/05/20 20:05:08;;;;;;;;;3.75;3.50;;;;;;;;5089920;28;8808;-78
2023/05/20 20:07:33;;;;;;;;;6.00;3.50;;;;;;;;5089932;28;8815;-72
2023/05/20 20:09:59;;;;;;;;;6.25;3.00;;;;;;;;5098526;28;8841;-73
2023/05/20 20:12:24;;;;;;;;;6.00;4.00;;;;;;;;5110387;28;8793;-74
2023/05/20 20:14:50;;;;;;;;;3.25;3.00;;;;;;;;5108689;28;8875;-76
2023/05/20 20:17:16;;;;;;;;;3.75;3.75;;;;;;;;5110204;28;8805;-79
2023/05/20 20:19:44;;;;;;;;;6.00;3.75;;;;;;;;5105472;28;8805;-78
2023/05/20 20:22:10;;;;;;;;;4.00;3.25;;;;;;;;5110459;28;10225;-79
2023/05/20 20:24:35;;;;;;;;;3.00;2.50;;;;;;;;5110033;28;10467;-76
2023/05/20 20:27:01;;;;;;;;;5.00;5.00;;;;;;;;5110353;28;8907;-75
2023/05/20 20:29:26;;;;;;;;;4.50;3.00;;;;;;;;5100131;27;8812;-74
2023/05/20 20:31:52;;;;;;;;;5.75;3.75;;;;;;;;5089548;28;8901;-79
2023/05/20 20:34:18;;;;;;;;;6.25;4.50;;;;;;;;5089567;28;8958;-77
2023/05/20 20:36:46;;;;;;;;;4.00;4.00;;;;;;;;5089494;28;10399;-73
2023/05/20 20:39:17;;;;;;;;;4.00;4.00;;;;;;;;5092821;28;8836;-74
2023/05/20 20:41:49;;;;;;;;;7.25;6.00;;;;;;;;5091623;28;10404;-74
2023/05/20 20:44:15;;;;;;;;;4.50;4.50;;;;;;;;5089416;28;10403;-77
2023/05/20 20:46:42;;;;;;;;;6.00;3.00;;;;;;;;5083160;28;10480;-76
2023/05/20 20:49:07;;;;;;;;;4.50;4.50;;;;;;;;5078596;28;10319;-78
2023/05/20 20:51:32;;;;;;;;;7.00;6.00;;;;;;;;5103297;28;10502;-77
2023/05/20 20:53:58;;;;;;;;;3.00;3.00;;;;;;;;5107857;28;8841;-73
2023/05/20 20:56:24;;;;;;;;;6.50;4.00;;;;;;;;5108066;28;8789;-77
2023/05/20 20:58:52;;;;;;;;;3.50;3.00;;;;;;;;5097098;28;8813;-77
2023/05/20 21:01:18;;;;;;;;;5.00;5.00;;;;;;;;5109088;28;10473;-78
2023/05/20 21:03:43;;;;;;;;;5.00;5.00;;;;;;;;5109464;28;10396;-78
2023/05/20 21:06:08;;;;;;;;;8.00;5.75;;;;;;;;5109144;28;8801;-71
2023/05/20 21:08:34;;;;;;;;;3.00;3.00;;;;;;;;5106751;28;8900;-71
2023/05/20 21:10:59;;;;;;;;;2.75;2.75;;;;;;;;5097934;28;8894;-74
2023/05/20 21:13:26;;;;;;;;;7.00;6.00;;;;;;;;5109191;28;8794;-75
2023/05/20 21:15:51;;;;;;;;;4.75;3.00;;;;;;;;5109515;28;8851;-70
2023/05/20 21:18:20;;;;;;;;;3.25;3.25;;;;;;;;5107950;28;10417;-72
2023/05/20 21:20:46;;;;;;;;;4.00;3.50;;;;;;;;5093836;28;9686;-71
2023/05/20 21:23:11;;;;;;;;;6.25;3.75;;;;;;;;5108764;28;10619;-71
2023/05/20 21:25:37;;;;;;;;;5.00;5.00;;;;;;;;5109138;28;8924;-71
2023/05/20 21:28:02;;;;;;;;;4.00;4.00;;;;;;;;5108710;28;8785;-72
2023/05/20 21:30:28;;;;;;;;;4.00;4.00;;;;;;;;5096215;28;8816;-70
2023/05/20 21:32:53;;;;;;;;;7.25;4.00;;;;;;;;5109093;28;8801;-72
2023/05/20 21:35:18;;;;;;;;;7.00;6.00;;;;;;;;5108939;28;8805;-71
2023/05/20 21:37:44;;;;;;;;;5.50;5.50;;;;;;;;5108649;28;8790;-72
2023/05/20 21:40:09;;;;;;;;;8.25;7.00;;;;;;;;5092929;28;8916;-71
2023/05/20 21:42:34;;;;;;;;;6.75;6.00;;;;;;;;5091958;28;8834;-71
2023/05/20 21:45:00;;;;;;;;;3.75;3.75;;;;;;;;5091866;28;8915;-71
2023/05/20 21:47:25;;;;;;;;;5.00;5.00;;;;;;;;5092311;28;8881;-70
2023/05/20 21:49:50;;;;;;;;;7.00;7.00;;;;;;;;5090730;28;8828;-71
2023/05/20 21:52:15;;;;;;;;;7.00;6.25;;;;;;;;5111989;28;8794;-70
2023/05/20 21:54:41;;;;;;;;;22.50;19.00;;;;;;;;5112465;28;8885;-70
2023/05/20 21:57:06;;;;;;;;;4.50;4.50;;;;;;;;5112427;28;8821;-72
2023/05/20 21:59:32;;;;;;;;;8.00;4.50;;;;;;;;5102392;28;8820;-70
2023/05/20 22:01:57;;;;;;;;;8.50;6.25;;;;;;;;5091698;28;9014;-70
2023/05/20 22:04:23;;;;;;;;;4.50;4.00;;;;;;;;5092002;28;8808;-70
2023/05/20 22:06:49;;;;;;;;;4.00;3.00;;;;;;;;5091934;28;8817;-70
2023/05/20 22:09:15;;;;;;;;;4.00;3.75;;;;;;;;5091008;28;10708;-71
2023/05/20 22:11:44;;;;;;;;;4.50;4.50;;;;;;;;5091692;28;10644;-69
2023/05/20 22:14:09;;;;;;;;;6.50;6.00;;;;;;;;5091091;28;9607;-73
2023/05/20 22:16:34;;;;;;;;;4.00;4.00;;;;;;;;5091802;28;10595;-79
2023/05/20 22:19:01;;;;;;;;;3.50;3.00;;;;;;;;5091814;28;8781;-78
2023/05/20 22:21:27;;;;;;;;;5.75;4.50;;;;;;;;5103731;28;9699;-79
2023/05/20 22:23:52;;;;;;;;;4.00;4.00;;;;;;;;5104879;28;10770;-77
2023/05/20 22:26:18;;;;;;;;;5.50;4.00;;;;;;;;5080521;28;8867;-80
2023/05/20 22:28:43;;;;;;;;;7.50;6.00;;;;;;;;5069860;28;8990;-79
2023/05/20 22:31:09;;;;;;;;;8.25;6.00;;;;;;;;5069680;28;8806;-80
2023/05/20 22:33:35;;;;;;;;;6.50;5.50;;;;;;;;5071650;28;8879;-79
2023/05/20 22:36:01;;;;;;;;;6.75;3.75;;;;;;;;5069820;28;8815;-79
2023/05/20 22:38:28;;;;;;;;;6.00;5.50;;;;;;;;5071066;28;10459;-81
2023/05/20 22:40:53;;;;;;;;;6.50;6.00;;;;;;;;5071124;28;8806;-81
2023/05/20 22:43:21;;;;;;;;;7.75;7.75;;;;;;;;5070968;28;10515;-80
2023/05/20 22:45:47;;;;;;;;;9.00;6.75;;;;;;;;5071066;28;8814;-79
2023/05/20 22:48:12;;;;;;;;;8.00;7.00;;;;;;;;5070387;28;11410;-81
2023/05/20 22:50:38;;;;;;;;;8.00;7.00;;;;;;;;5083706;28;8955;-80
2023/05/20 22:53:03;;;;;;;;;4.75;4.50;;;;;;;;5111237;28;8777;-80
2023/05/20 22:55:28;;;;;;;;;6.50;6.50;;;;;;;;5110913;28;8825;-80
2023/05/20 22:57:53;;;;;;;;;6.00;6.00;;;;;;;;5111013;28;8785;-80
2023/05/20 23:00:19;;;;;;;;;8.25;6.25;;;;;;;;5109337;28;8817;-80
2023/05/20 23:02:48;;;;;;;;;3.00;2.00;;;;;;;;5110291;28;8785;-80
2023/05/20 23:05:13;;;;;;;;;5.00;5.00;;;;;;;;5110841;28;9738;-80
2023/05/20 23:07:39;;;;;;;;;8.00;6.00;;;;;;;;5109981;28;10567;-80
2023/05/20 23:10:04;;;;;;;;;7.00;4.50;;;;;;;;5110382;28;8878;-80
2023/05/20 23:12:30;;;;;;;;;7.25;5.50;;;;;;;;5110525;27;8793;-79
2023/05/20 23:14:55;;;;;;;;;6.00;6.00;;;;;;;;5110267;28;9623;-79
2023/05/20 23:17:20;;;;;;;;;6.25;6.25;;;;;;;;5110111;28;8819;-80
2023/05/20 23:19:46;;;;;;;;;5.00;5.00;;;;;;;;5109984;28;8793;-80
2023/05/20 23:22:12;;;;;;;;;7.00;7.00;;;;;;;;5109695;28;8798;-80
2023/05/20 23:24:38;;;;;;;;;7.25;6.50;;;;;;;;5110809;28;8805;-80
2023/05/20 23:27:04;;;;;;;;;8.25;6.00;;;;;;;;5110783;28;10695;-80
2023/05/20 23:29:30;;;;;;;;;6.00;6.00;;;;;;;;5110883;28;8789;-79
2023/05/20 23:31:55;;;;;;;;;5.75;4.50;;;;;;;;5109390;28;10764;-79
2023/05/20 23:34:21;;;;;;;;;7.25;6.00;;;;;;;;5110584;28;8831;-79
2023/05/20 23:36:46;;;;;;;;;7.00;6.00;;;;;;;;5110484;28;8773;-78